Startpagina
METAR-TAF:

METAR-TAF

Vliegvelden :

Mönchengladbach, Duitsland

Flughafen Mönchengladbach

breedte: 51-13-49N, lengte: 006-30-16E, hoogte: 38 m

Actueel weer

Dit bericht is 37 minuten geleden gemaakt, om 09:50 UTC
Wind 3 kt uit variabele richting
Temperatuur 15°C
Vochtigheid 77%
Druk 1021 hPa
Zicht 10 km of meer
geen wolken onder 1500 m en geen cumulonimbus

METAR: EDLN 210950Z VRB03KT CAVOK 15/11 Q1021

Tijdstip: 12:27 (10:27 UTC)

Verwachting

Dit bericht is 2 uur en het 27 minuten geleden gemaakt, om 08:00 UTC
Verwachting geldig van 21 om 09 UTC tot 21 om 18 UTC
Wind 5 kt uit het zuidoosten
Zicht 10 km of meer
geen wolken onder 1500 m en geen cumulonimbus

TAF: EDLN 210800Z 2109/2118 13005KT CAVOK

Waarnemingen en weersverwachtingen van meer dan 4000 vliegvelden (METAR en TAF).

De beschikbare stations zijn de gele en rode punten op de kaart.

Ga met uw muis naar het station om de naam te zien.

Klik dan om waarnemingen en weersverwachtingen te zien.

kaart wijzigen: klik op de groene knoppen met een zwart kruis om in te zoomen, op de groene knop met een streepje om uit te zoomen of op de groene pijlen voor aangrenzende kaarten.


METAR-TAF: